Aeroporto :
LOGIN :

Iscrizione | Disclaimer

   EN    FR    IT 

 










Sommario :    VFR   VFR Marginale   IFR   IFR Intensivo   IFR Molto Intensivo
Visibilità : 
Base nubi : 
>= 8 km
>= 3000ft
5 / 8 km
1000 / 3000 ft
1500m / 5 km
500 / 1000 ft
800 / 1500m
200 / 500 ft
< 800m
< 200 ft
Simboli :   Temporali  Nebbia  Neve Forte  Precipitazioni Forti  Vento > 20 kt
SIGMETs :   Varie  Temporali  Ghiacco  Turbolenza  Onda orograficha  Ceneri Vulcaniche






- Altitudine del aeroporto : 24 ft
- Codice IATA : SGD


EKSB - Sonderborg

ULTIMO METAR :
  • 210750Z 11002KT 9999 BKN040 04/03 Q1015

METARs OBSOLETI :
  • 210720Z 00000KT 9999 BKN040 03/02 Q1015
  • 210620Z 16003KT 9999 SCT030 03/01 Q1015
  • 210550Z 15003KT 9999 FEW025 04/01 Q1015
  • 210520Z 16004KT 9999 BKN025 04/02 Q1015

TAF TAF EKSB
Valido dal 21 a 06 ore il 21 a 15 ore UTC


210604Z 2106/2115 16005KT 9999 BKN020
BECMG 2106/2109 BKN012
BECMG 2109/2112 BKN008
TEMPO 2112/2115 2000 -RADZ BR BKN004



MetMap, La meteo Aeronautica in un colpo d'occhio ! - Copyright ORBIFLY Dicembre 2007 - Disclaimer

ORBIFLY MET'MAP TEAM :

Programmazione e sviluppo : Alexandra Zaïnal
Concezione e sviluppo : Baudouin d'Aumeries
Co-Programmazione e sviluppo : Marc-Olivier Méhu
Supporto tecnico e logistico : Manuel Goepfert
Aiuto per la traduzione : Arnaldo La Scala

Contatto : metmap@orbifly.com




FONTI E CREDITI :

   NOAA